Time;durP1;ratioP1;P1;durP2;ratioP2;P2;SDS_P1;SDS_P2;PMS_P1;PMS_P2;Temp;Humidity;BMP_temperature;BMP_pressure;BME280_temperature;BME280_humidity;BME280_pressure;Samples;Min_cycle;Max_cycle;Signal;HPM_P1;HPM_P2
2023/07/08 00:02:10;;;;;;;0.50;0.30;;;19.90;99.90;;;;;;5011753;28;20481;-76
2023/07/08 00:04:39;;;;;;;0.50;0.30;;;19.90;99.90;;;;;;5010340;28;20453;-80
2023/07/08 00:07:06;;;;;;;0.50;0.30;;;19.90;99.90;;;;;;5009957;28;20461;-79
2023/07/08 00:09:33;;;;;;;0.50;0.30;;;19.90;99.90;;;;;;5012407;28;20447;-80
2023/07/08 00:12:00;;;;;;;0.50;0.30;;;20.00;99.90;;;;;;5013357;28;20442;-80
2023/07/08 00:14:26;;;;;;;0.50;0.30;;;20.00;99.90;;;;;;5010158;28;20440;-80
2023/07/08 00:16:53;;;;;;;0.50;0.30;;;20.00;99.90;;;;;;5010225;28;20464;-80
2023/07/08 00:19:23;;;;;;;0.50;0.30;;;20.00;99.90;;;;;;5011882;28;20446;-80
2023/07/08 00:21:52;;;;;;;0.50;0.30;;;20.00;99.90;;;;;;5012807;28;20891;-80
2023/07/08 00:24:19;;;;;;;0.50;0.37;;;20.00;99.90;;;;;;5010146;28;20472;-80
2023/07/08 00:26:46;;;;;;;0.50;0.30;;;20.00;99.90;;;;;;5009402;28;20531;-80
2023/07/08 00:29:14;;;;;;;0.50;0.40;;;20.10;99.90;;;;;;5010015;28;20449;-80
2023/07/08 00:31:40;;;;;;;0.50;0.30;;;20.10;99.90;;;;;;5012194;28;20447;-79
2023/07/08 00:34:07;;;;;;;1.33;1.23;;;20.10;99.90;;;;;;5012505;28;20449;-78
2023/07/08 00:36:35;;;;;;;0.50;0.30;;;20.10;99.90;;;;;;5009348;28;20476;-80
2023/07/08 00:39:03;;;;;;;0.50;0.30;;;20.10;99.90;;;;;;5009067;28;20447;-76
2023/07/08 00:41:34;;;;;;;0.50;0.30;;;20.10;99.90;;;;;;5011951;28;20480;-80
2023/07/08 00:44:01;;;;;;;0.50;0.30;;;20.20;99.90;;;;;;5012470;28;20453;-80
2023/07/08 00:46:46;;;;;;;0.50;0.30;;;20.20;99.90;;;;;;5009666;28;20463;-80
2023/07/08 00:49:27;;;;;;;0.50;0.30;;;20.10;99.90;;;;;;5008337;28;20442;-81
2023/07/08 00:51:54;;;;;;;0.50;0.30;;;20.20;99.90;;;;;;5012320;28;20443;-80
2023/07/08 00:54:22;;;;;;;0.60;0.43;;;20.20;99.90;;;;;;5012353;28;20440;-80
2023/07/08 00:56:52;;;;;;;0.50;0.30;;;20.20;99.90;;;;;;5011819;28;20450;-80
2023/07/08 00:59:24;;;;;;;0.50;0.30;;;20.20;99.90;;;;;;5009824;28;20912;-80
2023/07/08 01:01:52;;;;;;;0.50;0.30;;;20.20;99.90;;;;;;5010647;28;20478;-79
2023/07/08 01:04:25;;;;;;;0.50;0.30;;;20.20;99.90;;;;;;5013055;28;20780;-80
2023/07/08 01:06:57;;;;;;;0.50;0.30;;;20.20;99.90;;;;;;5015496;28;20466;-81
2023/07/08 01:09:29;;;;;;;0.50;0.30;;;20.20;99.90;;;;;;5013110;28;20474;-80
2023/07/08 01:11:59;;;;;;;3.20;3.00;;;20.30;99.90;;;;;;5012337;28;20530;-80
2023/07/08 01:14:31;;;;;;;0.50;0.30;;;20.30;99.90;;;;;;5014495;28;20475;-80
2023/07/08 01:16:59;;;;;;;0.50;0.30;;;20.30;99.90;;;;;;5016464;28;20470;-79
2023/07/08 01:19:32;;;;;;;0.50;0.30;;;20.30;99.90;;;;;;5013052;28;20442;-80
2023/07/08 01:22:01;;;;;;;0.50;0.30;;;20.20;99.90;;;;;;5011819;28;20483;-79
2023/07/08 01:24:30;;;;;;;0.50;0.30;;;20.20;99.90;;;;;;5013930;28;20444;-79
2023/07/08 01:26:58;;;;;;;0.50;0.30;;;20.20;99.90;;;;;;5014938;28;20469;-79
2023/07/08 01:29:25;;;;;;;0.50;0.30;;;20.20;99.90;;;;;;5014062;28;20455;-81
2023/07/08 01:31:52;;;;;;;0.50;0.30;;;20.20;99.90;;;;;;5012255;28;20436;-81
2023/07/08 01:34:19;;;;;;;0.50;0.30;;;20.20;99.90;;;;;;5012766;28;20444;-79
2023/07/08 01:36:52;;;;;;;0.50;0.30;;;20.10;99.90;;;;;;5015593;28;20468;-80
2023/07/08 01:39:23;;;;;;;0.50;0.30;;;20.10;99.90;;;;;;5013695;28;20453;-80
2023/07/08 01:41:51;;;;;;;0.50;0.30;;;20.10;99.90;;;;;;5011652;28;20474;-80
2023/07/08 01:44:28;;;;;;;0.70;0.70;;;20.10;99.90;;;;;;5012404;28;20475;-80
2023/07/08 01:46:58;;;;;;;0.50;0.30;;;20.10;99.90;;;;;;5015066;28;20583;-80
2023/07/08 01:49:25;;;;;;;0.50;0.30;;;20.10;99.90;;;;;;5012487;28;20443;-78
2023/07/08 01:51:53;;;;;;;0.50;0.40;;;20.20;99.90;;;;;;5011341;28;20435;-80
2023/07/08 01:54:21;;;;;;;0.50;0.30;;;20.10;99.90;;;;;;5012391;28;20444;-80
2023/07/08 01:56:51;;;;;;;0.50;0.30;;;20.10;99.90;;;;;;5015006;28;20467;-80
2023/07/08 01:59:18;;;;;;;0.50;0.30;;;20.10;99.90;;;;;;5013728;28;20466;-80
2023/07/08 02:01:45;;;;;;;0.50;0.30;;;20.10;99.90;;;;;;5011142;28;20488;-80
2023/07/08 02:04:11;;;;;;;0.50;0.30;;;20.10;99.90;;;;;;5011298;28;20963;-78
2023/07/08 02:06:38;;;;;;;0.50;0.30;;;20.10;99.90;;;;;;5014607;28;20459;-80
2023/07/08 02:09:06;;;;;;;0.50;0.30;;;20.10;99.90;;;;;;5014828;28;20451;-80
2023/07/08 02:11:34;;;;;;;0.50;0.30;;;20.00;99.90;;;;;;5011524;28;20443;-80
2023/07/08 02:14:03;;;;;;;0.50;0.37;;;20.00;99.90;;;;;;5010822;28;20454;-79
2023/07/08 02:16:30;;;;;;;0.50;0.30;;;19.90;99.90;;;;;;5012362;28;20464;-80
2023/07/08 02:18:57;;;;;;;0.50;0.30;;;20.00;99.90;;;;;;5014063;28;20440;-81
2023/07/08 02:21:23;;;;;;;0.50;0.30;;;19.90;99.90;;;;;;5013553;28;20538;-80
2023/07/08 02:23:52;;;;;;;0.50;0.30;;;19.90;99.90;;;;;;5013647;28;20443;-80
2023/07/08 02:26:19;;;;;;;0.50;0.30;;;19.90;99.90;;;;;;5013187;28;20493;-80
2023/07/08 02:28:47;;;;;;;0.50;0.30;;;19.90;99.90;;;;;;5010247;28;20521;-80
2023/07/08 02:31:14;;;;;;;0.50;0.30;;;19.90;99.90;;;;;;5009882;28;20469;-80
2023/07/08 02:33:41;;;;;;;0.50;0.30;;;19.90;99.90;;;;;;5010579;28;20969;-80
2023/07/08 02:36:08;;;;;;;0.50;0.40;;;19.90;99.90;;;;;;5010706;28;20447;-80
2023/07/08 02:38:34;;;;;;;1.13;0.70;;;20.00;99.90;;;;;;5012847;28;20454;-80
2023/07/08 02:41:01;;;;;;;0.50;0.30;;;20.00;99.90;;;;;;5013383;28;20485;-80
2023/07/08 02:43:28;;;;;;;0.50;0.30;;;20.00;99.90;;;;;;5012592;28;20483;-80
2023/07/08 02:45:56;;;;;;;0.50;0.30;;;20.00;99.90;;;;;;5010689;28;20449;-80
2023/07/08 02:48:23;;;;;;;0.50;0.30;;;20.00;99.90;;;;;;5011382;28;20469;-80
2023/07/08 02:50:49;;;;;;;0.50;0.30;;;20.00;99.90;;;;;;5013706;28;20558;-80
2023/07/08 02:53:16;;;;;;;0.50;0.30;;;20.00;99.90;;;;;;5013815;28;20517;-80
2023/07/08 02:55:43;;;;;;;0.50;0.30;;;19.90;99.90;;;;;;5002462;28;20456;-80
2023/07/08 02:58:10;;;;;;;0.50;0.40;;;19.80;99.90;;;;;;5009722;28;20921;-79
2023/07/08 03:00:37;;;;;;;0.50;0.30;;;19.80;99.90;;;;;;5011272;28;20448;-80
2023/07/08 03:03:06;;;;;;;0.50;0.30;;;19.70;99.90;;;;;;5013090;28;20484;-79
2023/07/08 03:05:33;;;;;;;0.50;0.30;;;19.70;99.90;;;;;;5011496;28;20447;-80
2023/07/08 03:08:00;;;;;;;0.50;0.30;;;19.60;99.90;;;;;;5008938;28;20480;-77
2023/07/08 03:10:27;;;;;;;0.50;0.30;;;19.60;99.90;;;;;;5009015;28;20455;-78
2023/07/08 03:12:54;;;;;;;0.50;0.30;;;19.60;99.90;;;;;;5012745;28;20427;-80
2023/07/08 03:15:21;;;;;;;0.50;0.30;;;19.60;99.90;;;;;;5012584;28;20451;-78
2023/07/08 03:17:48;;;;;;;0.50;0.40;;;19.50;99.90;;;;;;5011432;28;20470;-81
2023/07/08 03:20:17;;;;;;;0.50;0.30;;;19.50;99.90;;;;;;5011206;28;20442;-80
2023/07/08 03:22:44;;;;;;;0.50;0.30;;;19.50;99.90;;;;;;5014416;28;20482;-79
2023/07/08 03:25:10;;;;;;;0.60;0.53;;;19.40;99.90;;;;;;5014198;28;20443;-79
2023/07/08 03:27:37;;;;;;;0.60;0.60;;;19.40;99.90;;;;;;5012398;28;20466;-81
2023/07/08 03:30:05;;;;;;;0.50;0.40;;;19.40;99.90;;;;;;5010564;28;20971;-78
2023/07/08 03:32:32;;;;;;;0.50;0.30;;;19.30;99.90;;;;;;5012517;28;20455;-80
2023/07/08 03:34:58;;;;;;;0.50;0.30;;;19.30;99.90;;;;;;5013868;28;20440;-81
2023/07/08 03:37:26;;;;;;;0.50;0.30;;;19.20;99.90;;;;;;5013320;28;20468;-80
2023/07/08 03:39:53;;;;;;;0.50;0.40;;;19.20;99.90;;;;;;5010786;28;20440;-80
2023/07/08 03:42:20;;;;;;;0.50;0.30;;;19.20;99.90;;;;;;5011321;28;20475;-80
2023/07/08 03:44:47;;;;;;;1.70;0.60;;;19.20;99.90;;;;;;5014307;28;20450;-80
2023/07/08 03:47:13;;;;;;;0.50;0.40;;;19.10;99.90;;;;;;5014884;28;20475;-81
2023/07/08 03:49:40;;;;;;;0.50;0.30;;;19.10;99.90;;;;;;5011643;28;20511;-80
2023/07/08 03:52:15;;;;;;;0.50;0.30;;;19.10;99.90;;;;;;5011490;28;20505;-77
2023/07/08 03:54:43;;;;;;;0.50;0.30;;;19.10;99.90;;;;;;5014192;28;20518;-81
2023/07/08 03:57:10;;;;;;;0.50;0.30;;;19.20;99.90;;;;;;5015755;28;20464;-80
2023/07/08 03:59:37;;;;;;;0.50;0.30;;;19.20;99.90;;;;;;5012767;28;20963;-79
2023/07/08 04:02:04;;;;;;;0.50;0.30;;;19.20;99.90;;;;;;5012378;28;20482;-80
2023/07/08 04:04:30;;;;;;;0.50;0.30;;;19.20;99.90;;;;;;5012432;28;20440;-80
2023/07/08 04:06:57;;;;;;;0.50;0.37;;;19.30;99.90;;;;;;5014960;28;20466;-78
2023/07/08 04:09:24;;;;;;;0.50;0.30;;;19.30;99.90;;;;;;5015584;28;20439;-80
2023/07/08 04:11:52;;;;;;;0.50;0.40;;;19.40;99.90;;;;;;5015102;28;20510;-80
2023/07/08 04:14:19;;;;;;;0.50;0.30;;;19.40;99.90;;;;;;5014781;28;20446;-80
2023/07/08 04:16:57;;;;;;;0.50;0.40;;;19.40;99.90;;;;;;5012269;28;20471;-79
2023/07/08 04:19:24;;;;;;;0.50;0.30;;;19.50;99.90;;;;;;5011903;28;20449;-80
2023/07/08 04:21:51;;;;;;;0.50;0.30;;;19.40;99.90;;;;;;5014070;28;20569;-81
2023/07/08 04:24:18;;;;;;;0.50;0.30;;;19.40;99.90;;;;;;5014311;28;20441;-80
2023/07/08 04:26:47;;;;;;;0.50;0.30;;;19.40;99.90;;;;;;5011692;28;20845;-81
2023/07/08 04:29:19;;;;;;;0.50;0.30;;;19.50;99.90;;;;;;5011627;28;20534;-80
2023/07/08 04:31:47;;;;;;;0.50;0.30;;;19.50;99.90;;;;;;5012874;28;20483;-81
2023/07/08 04:34:15;;;;;;;0.50;0.40;;;19.50;99.90;;;;;;5014079;28;20447;-80
2023/07/08 04:36:43;;;;;;;0.50;0.30;;;19.50;99.90;;;;;;5013949;28;20486;-80
2023/07/08 04:39:10;;;;;;;0.50;0.30;;;19.40;99.90;;;;;;5014272;28;20757;-81
2023/07/08 04:41:40;;;;;;;0.50;0.30;;;19.40;99.90;;;;;;5015043;28;20841;-79
2023/07/08 04:44:07;;;;;;;0.50;0.30;;;19.40;99.90;;;;;;5017260;28;20514;-81
2023/07/08 04:46:38;;;;;;;0.50;0.30;;;19.40;99.90;;;;;;5016119;28;20493;-80
2023/07/08 04:49:06;;;;;;;0.50;0.37;;;19.30;99.90;;;;;;5013847;28;20442;-78
2023/07/08 04:51:33;;;;;;;0.50;0.30;;;19.30;99.90;;;;;;5013598;28;20489;-80
2023/07/08 04:53:59;;;;;;;0.50;0.30;;;19.30;99.90;;;;;;5017730;28;20453;-80
2023/07/08 04:56:35;;;;;;;1.27;1.10;;;19.20;99.90;;;;;;5017960;28;20467;-80
2023/07/08 04:59:02;;;;;;;0.50;0.30;;;19.20;99.90;;;;;;5007613;28;20442;-80
2023/07/08 05:01:29;;;;;;;0.50;0.40;;;19.20;99.90;;;;;;5014089;28;20443;-80
2023/07/08 05:03:57;;;;;;;0.50;0.30;;;19.20;99.90;;;;;;5007081;28;20530;-81
2023/07/08 05:06:24;;;;;;;0.50;0.30;;;19.20;99.90;;;;;;5014336;28;20464;-80
2023/07/08 05:08:50;;;;;;;0.50;0.30;;;19.20;99.90;;;;;;5012830;28;20448;-79
2023/07/08 05:11:17;;;;;;;0.50;0.30;;;19.40;99.90;;;;;;5011490;28;20435;-79
2023/07/08 05:13:44;;;;;;;0.50;0.30;;;19.40;99.90;;;;;;5009347;28;20530;-79
2023/07/08 05:16:11;;;;;;;0.50;0.30;;;19.50;99.90;;;;;;5008175;28;20451;-78
2023/07/08 05:18:37;;;;;;;0.50;0.40;;;19.50;99.90;;;;;;5008585;28;20456;-79
2023/07/08 05:21:06;;;;;;;0.50;0.30;;;19.50;99.90;;;;;;5011081;28;20451;-79
2023/07/08 05:23:33;;;;;;;0.50;0.30;;;19.50;99.90;;;;;;5010665;28;20483;-77
2023/07/08 05:26:01;;;;;;;0.50;0.30;;;19.60;99.90;;;;;;5007977;28;20453;-77
2023/07/08 05:28:28;;;;;;;0.50;0.30;;;19.60;99.90;;;;;;5008288;28;20512;-79
2023/07/08 05:30:55;;;;;;;0.50;0.30;;;19.70;99.90;;;;;;5010752;28;20556;-79
2023/07/08 05:33:22;;;;;;;0.50;0.30;;;19.70;99.90;;;;;;5010941;28;20494;-79
2023/07/08 05:35:49;;;;;;;0.57;0.47;;;19.70;99.90;;;;;;5009392;28;20446;-79
2023/07/08 05:38:17;;;;;;;0.50;0.30;;;19.70;99.90;;;;;;5008458;28;20479;-78
2023/07/08 05:40:49;;;;;;;0.50;0.30;;;19.70;99.90;;;;;;5008752;28;20451;-79
2023/07/08 05:43:15;;;;;;;0.50;0.30;;;19.80;99.90;;;;;;5011342;28;20475;-79
2023/07/08 05:45:42;;;;;;;0.50;0.30;;;19.70;99.90;;;;;;5009351;28;20456;-79
2023/07/08 05:48:09;;;;;;;0.50;0.30;;;19.80;99.90;;;;;;5007142;28;20475;-80
2023/07/08 05:50:36;;;;;;;0.50;0.30;;;19.90;99.90;;;;;;5006989;28;20935;-78
2023/07/08 05:53:03;;;;;;;0.50;0.30;;;19.90;99.90;;;;;;5010896;28;20476;-78
2023/07/08 05:55:32;;;;;;;0.50;0.30;;;20.10;99.90;;;;;;5011758;28;20458;-79
2023/07/08 05:57:59;;;;;;;0.50;0.30;;;20.30;99.90;;;;;;5007159;28;20461;-79
2023/07/08 06:00:26;;;;;;;0.50;0.30;;;20.40;99.90;;;;;;5007275;28;20454;-79
2023/07/08 06:02:53;;;;;;;0.50;0.30;;;20.60;99.90;;;;;;5010145;28;20859;-79
2023/07/08 06:05:20;;;;;;;0.50;0.40;;;20.70;99.90;;;;;;5010724;28;20445;-79
2023/07/08 06:07:47;;;;;;;0.50;0.37;;;20.80;99.90;;;;;;5009176;28;20466;-79
2023/07/08 06:10:13;;;;;;;0.50;0.30;;;20.90;99.90;;;;;;5007144;28;20436;-77
2023/07/08 06:12:42;;;;;;;0.50;0.40;;;21.00;99.90;;;;;;5007263;28;20800;-80
2023/07/08 06:15:12;;;;;;;0.50;0.37;;;21.10;99.90;;;;;;5010656;28;20443;-79
2023/07/08 06:17:38;;;;;;;0.50;0.40;;;21.20;99.90;;;;;;5010157;28;20580;-79
2023/07/08 06:20:06;;;;;;;0.50;0.30;;;21.30;99.90;;;;;;5006416;28;20450;-78
2023/07/08 06:22:33;;;;;;;0.50;0.30;;;21.40;99.90;;;;;;5007886;28;20483;-78
2023/07/08 06:25:00;;;;;;;0.50;0.30;;;21.60;99.90;;;;;;5009850;28;20453;-79
2023/07/08 06:27:27;;;;;;;0.53;0.43;;;21.70;99.90;;;;;;5010241;28;20964;-79
2023/07/08 06:29:55;;;;;;;0.50;0.30;;;21.90;99.90;;;;;;5008162;28;20447;-78
2023/07/08 06:32:22;;;;;;;0.60;0.60;;;22.00;99.90;;;;;;5008086;28;20445;-79
2023/07/08 06:34:49;;;;;;;0.50;0.40;;;22.20;99.90;;;;;;5008712;28;20447;-77
2023/07/08 06:37:16;;;;;;;0.50;0.30;;;22.40;99.90;;;;;;5009961;28;20470;-80
2023/07/08 06:39:42;;;;;;;0.50;0.30;;;22.70;99.90;;;;;;5009521;28;20444;-79
2023/07/08 06:42:09;;;;;;;0.50;0.40;;;23.10;99.90;;;;;;5007012;28;20444;-76
2023/07/08 06:44:37;;;;;;;0.50;0.30;;;23.30;99.90;;;;;;5007589;28;21040;-79
2023/07/08 06:47:06;;;;;;;0.50;0.30;;;23.60;99.90;;;;;;4999672;28;20482;-80
2023/07/08 06:49:33;;;;;;;0.50;0.30;;;24.10;99.90;;;;;;5007671;28;20444;-77
2023/07/08 06:52:00;;;;;;;4.20;3.23;;;24.50;99.90;;;;;;5010758;28;20826;-79
2023/07/08 06:54:27;;;;;;;0.50;0.40;;;25.50;99.90;;;;;;5011656;28;20806;-80
2023/07/08 06:56:54;;;;;;;0.50;0.30;;;26.00;99.90;;;;;;5009920;28;20473;-79
2023/07/08 06:59:21;;;;;;;0.50;0.30;;;26.30;99.20;;;;;;5008006;28;20435;-79
2023/07/08 07:01:48;;;;;;;0.50;0.30;;;26.60;97.50;;;;;;5009730;28;20443;-80
2023/07/08 07:04:16;;;;;;;0.50;0.40;;;27.20;98.90;;;;;;5012552;28;20488;-80
2023/07/08 07:06:43;;;;;;;0.50;0.30;;;27.50;93.60;;;;;;5012552;28;20473;-77
2023/07/08 07:09:10;;;;;;;0.50;0.30;;;28.20;95.40;;;;;;5009442;28;20824;-80
2023/07/08 07:11:37;;;;;;;0.50;0.30;;;28.50;90.90;;;;;;5010199;28;20487;-80
2023/07/08 07:14:03;;;;;;;0.50;0.30;;;28.80;86.10;;;;;;5012887;28;20438;-80
2023/07/08 07:16:30;;;;;;;0.50;0.30;;;29.00;84.60;;;;;;5013711;28;20472;-78
2023/07/08 07:18:57;;;;;;;0.50;0.30;;;29.40;86.20;;;;;;5010522;28;20857;-80
2023/07/08 07:21:25;;;;;;;0.50;0.30;;;30.00;85.40;;;;;;5010221;28;20450;-81
2023/07/08 07:23:52;;;;;;;0.50;0.30;;;30.40;82.30;;;;;;5011720;28;20851;-80
2023/07/08 07:26:19;;;;;;;0.50;0.30;;;30.60;77.20;;;;;;5010776;28;20452;-78
2023/07/08 07:28:45;;;;;;;0.50;0.30;;;31.00;78.70;;;;;;5008303;28;20978;-78
2023/07/08 07:31:12;;;;;;;0.50;0.30;;;31.80;80.40;;;;;;5005026;28;21049;-79
2023/07/08 07:33:39;;;;;;;0.50;0.40;;;32.20;72.10;;;;;;5004502;28;20531;-80
2023/07/08 07:36:06;;;;;;;0.50;0.40;;;32.10;68.00;;;;;;5004142;28;20449;-79
2023/07/08 07:38:34;;;;;;;0.50;0.30;;;31.90;67.50;;;;;;5005192;28;20481;-80
2023/07/08 07:41:05;;;;;;;0.50;0.40;;;32.30;68.50;;;;;;5006221;28;20532;-79
2023/07/08 07:43:32;;;;;;;0.50;0.40;;;32.10;67.10;;;;;;5008746;28;20504;-79
2023/07/08 07:45:59;;;;;;;0.50;0.30;;;32.20;66.60;;;;;;4999759;28;20949;-79
2023/07/08 07:48:26;;;;;;;0.50;0.30;;;32.40;69.50;;;;;;5008456;28;20456;-79
2023/07/08 07:50:53;;;;;;;0.50;0.40;;;33.20;67.00;;;;;;5006698;28;20449;-78
2023/07/08 07:53:20;;;;;;;0.40;0.30;;;33.00;65.00;;;;;;5004813;28;20866;-79
2023/07/08 07:55:48;;;;;;;0.50;0.30;;;32.80;63.80;;;;;;5005351;28;20564;-78
2023/07/08 07:58:15;;;;;;;0.40;0.30;;;33.30;64.70;;;;;;5008142;28;20470;-79
2023/07/08 08:00:41;;;;;;;0.60;0.60;;;33.40;63.30;;;;;;5008207;28;20460;-79
2023/07/08 08:03:08;;;;;;;0.50;0.30;;;33.50;65.50;;;;;;5004712;28;20482;-80
2023/07/08 08:05:35;;;;;;;0.50;0.30;;;33.90;65.70;;;;;;5006163;28;20450;-79
2023/07/08 08:08:03;;;;;;;0.40;0.30;;;34.20;69.20;;;;;;5006667;28;20464;-81
2023/07/08 08:10:30;;;;;;;0.50;0.30;;;34.90;67.00;;;;;;5009368;28;20450;-80
2023/07/08 08:12:58;;;;;;;0.40;0.30;;;35.40;67.50;;;;;;5012107;28;20449;-80
2023/07/08 08:15:25;;;;;;;0.77;0.77;;;36.00;64.50;;;;;;5010323;28;20457;-80
2023/07/08 08:17:52;;;;;;;0.40;0.30;;;36.00;57.90;;;;;;5010202;28;20841;-80
2023/07/08 08:20:20;;;;;;;0.40;0.30;;;35.90;59.90;;;;;;5013382;28;20441;-80
2023/07/08 08:22:47;;;;;;;0.40;0.30;;;36.10;62.30;;;;;;5013230;28;20478;-80
2023/07/08 08:25:14;;;;;;;1.27;1.27;;;36.60;59.30;;;;;;5002009;28;20449;-78
2023/07/08 08:27:41;;;;;;;0.40;0.30;;;36.90;56.80;;;;;;5010348;28;20471;-78
2023/07/08 08:30:10;;;;;;;0.70;0.70;;;36.90;56.90;;;;;;5008883;28;20450;-75
2023/07/08 08:32:37;;;;;;;1.13;1.03;;;37.10;56.90;;;;;;5010006;28;20455;-79
2023/07/08 08:35:04;;;;;;;0.40;0.30;;;36.80;57.80;;;;;;5010828;28;20454;-79
2023/07/08 08:37:31;;;;;;;0.40;0.30;;;37.30;57.10;;;;;;5013354;28;20464;-80
2023/07/08 08:39:58;;;;;;;0.40;0.30;;;37.60;56.30;;;;;;5011568;28;20446;-80
2023/07/08 08:42:28;;;;;;;0.40;0.30;;;38.10;57.70;;;;;;5009926;28;20442;-80
2023/07/08 08:44:57;;;;;;;0.40;0.30;;;38.40;59.00;;;;;;5010435;28;20996;-80
2023/07/08 08:47:37;;;;;;;0.40;0.30;;;38.80;57.50;;;;;;5013639;28;20469;-80
2023/07/08 08:50:17;;;;;;;0.40;0.30;;;38.90;53.50;;;;;;5011384;28;20538;-80
2023/07/08 08:52:44;;;;;;;0.40;0.30;;;39.30;55.90;;;;;;5009594;28;20453;-81
2023/07/08 08:55:13;;;;;;;0.40;0.30;;;39.50;50.70;;;;;;5012360;28;20441;-78
2023/07/08 08:57:46;;;;;;;0.40;0.30;;;39.80;50.90;;;;;;5013593;28;20473;-79
2023/07/08 09:00:19;;;;;;;0.40;0.30;;;39.40;47.50;;;;;;5009788;28;20435;-80
2023/07/08 09:02:58;;;;;;;1.13;0.87;;;39.20;48.30;;;;;;5008644;28;20450;-80
2023/07/08 09:05:25;;;;;;;0.40;0.30;;;37.90;45.60;;;;;;5001035;28;20441;-80
2023/07/08 09:08:02;;;;;;;0.40;0.30;;;37.40;47.20;;;;;;5008945;28;20463;-78
2023/07/08 09:10:41;;;;;;;0.40;0.30;;;37.70;47.80;;;;;;5011511;28;20437;-80
2023/07/08 09:13:13;;;;;;;2.10;1.90;;;38.40;47.60;;;;;;5009717;28;20475;-79
2023/07/08 09:15:39;;;;;;;0.40;0.30;;;38.30;45.50;;;;;;5008908;28;20469;-80
2023/07/08 09:18:18;;;;;;;0.70;0.47;;;37.70;45.10;;;;;;5009371;28;20815;-77
2023/07/08 09:20:47;;;;;;;0.40;0.30;;;37.20;44.90;;;;;;5011367;28;20454;-80
2023/07/08 09:23:21;;;;;;;0.40;0.30;;;37.10;46.20;;;;;;5008790;28;20515;-80
2023/07/08 09:25:53;;;;;;;0.40;0.30;;;37.80;46.60;;;;;;5008545;28;20457;-79
2023/07/08 09:28:20;;;;;;;0.50;0.50;;;38.10;44.30;;;;;;4999714;28;20542;-79
2023/07/08 09:30:49;;;;;;;0.50;0.47;;;37.40;43.60;;;;;;5007172;28;20518;-79
2023/07/08 09:33:17;;;;;;;0.40;0.30;;;36.70;45.00;;;;;;5009655;28;20433;-79
2023/07/08 09:35:47;;;;;;;0.40;0.40;;;36.80;45.70;;;;;;5011020;28;20951;-80
2023/07/08 09:38:16;;;;;;;0.40;0.30;;;37.20;46.80;;;;;;5008416;28;20519;-77
2023/07/08 09:40:48;;;;;;;0.50;0.50;;;37.80;45.50;;;;;;5007810;28;20451;-80
2023/07/08 09:43:25;;;;;;;0.60;0.40;;;38.30;44.90;;;;;;5009779;28;20492;-79
2023/07/08 09:45:52;;;;;;;0.40;0.30;;;38.00;43.50;;;;;;5011801;28;20479;-80
2023/07/08 09:48:24;;;;;;;0.40;0.40;;;38.00;44.50;;;;;;5007838;28;20467;-80
2023/07/08 09:50:56;;;;;;;0.40;0.30;;;38.50;45.20;;;;;;5007842;28;20450;-80
2023/07/08 09:53:23;;;;;;;0.40;0.30;;;38.50;46.60;;;;;;5000654;28;20439;-80
2023/07/08 09:55:51;;;;;;;0.50;0.50;;;39.10;45.50;;;;;;5008790;28;20442;-80
2023/07/08 09:58:24;;;;;;;0.40;0.30;;;39.30;42.90;;;;;;5008055;28;20460;-80
2023/07/08 10:00:55;;;;;;;1.07;0.73;;;39.50;45.00;;;;;;5016070;28;20434;-79
2023/07/08 10:03:26;;;;;;;9.23;5.93;;;39.70;43.30;;;;;;5007925;28;20486;-78
2023/07/08 10:05:57;;;;;;;1.27;1.10;;;39.30;42.50;;;;;;5007880;28;20813;-79
2023/07/08 10:08:25;;;;;;;0.40;0.30;;;39.40;44.50;;;;;;5000280;28;20580;-80
2023/07/08 10:10:59;;;;;;;0.40;0.30;;;39.80;43.40;;;;;;5008255;28;20439;-80
2023/07/08 10:13:35;;;;;;;0.40;0.30;;;39.80;44.10;;;;;;5004377;28;20454;-80
2023/07/08 10:16:13;;;;;;;0.40;0.30;;;40.30;45.30;;;;;;5011293;28;20456;-79
2023/07/08 10:18:42;;;;;;;0.40;0.30;;;40.70;43.00;;;;;;5007698;28;20457;-79
2023/07/08 10:21:14;;;;;;;0.40;0.30;;;40.30;43.50;;;;;;5015435;28;20536;-80
2023/07/08 10:23:51;;;;;;;0.50;0.50;;;40.10;42.70;;;;;;5007443;28;20479;-79
2023/07/08 10:26:25;;;;;;;0.40;0.30;;;40.10;44.90;;;;;;5010179;28;20450;-81
2023/07/08 10:29:07;;;;;;;1.37;1.27;;;40.80;44.40;;;;;;5011240;28;20450;-79
2023/07/08 10:31:41;;;;;;;0.40;0.30;;;40.20;41.40;;;;;;5000146;28;20450;-80
2023/07/08 10:34:35;;;;;;;0.60;0.60;;;39.80;43.60;;;;;;5007473;28;20449;-80
2023/07/08 10:37:09;;;;;;;0.40;0.30;;;39.90;43.00;;;;;;5009945;28;20548;-79
2023/07/08 10:39:56;;;;;;;0.93;0.93;;;40.00;42.80;;;;;;5002678;28;20454;-80
2023/07/08 10:42:35;;;;;;;0.40;0.30;;;39.50;42.40;;;;;;5007391;28;20456;-79
2023/07/08 10:45:08;;;;;;;0.40;0.30;;;39.50;42.40;;;;;;5006982;28;20521;-79
2023/07/08 10:47:45;;;;;;;0.40;0.30;;;39.70;46.90;;;;;;5010465;28;20474;-80
2023/07/08 10:50:43;;;;;;;0.40;0.30;;;39.70;41.70;;;;;;5009990;28;20458;-81
2023/07/08 10:53:27;;;;;;;0.40;0.30;;;40.30;42.60;;;;;;5010950;28;20457;-79
2023/07/08 10:55:58;;;;;;;0.47;0.33;;;41.00;41.30;;;;;;5009876;28;20457;-80
2023/07/08 10:58:48;;;;;;;3.50;2.40;;;41.10;43.90;;;;;;5007298;28;20476;-80
2023/07/08 11:01:26;;;;;;;0.40;0.30;;;41.20;40.60;;;;;;5007946;28;20455;-79
2023/07/08 11:04:08;;;;;;;0.40;0.30;;;40.60;41.80;;;;;;5010425;28;20481;-80
2023/07/08 11:06:45;;;;;;;0.40;0.30;;;40.90;42.70;;;;;;5000648;28;20826;-80
2023/07/08 11:09:16;;;;;;;0.40;0.30;;;41.20;41.50;;;;;;5007937;28;20443;-80
2023/07/08 11:11:48;;;;;;;0.40;0.30;;;41.90;41.80;;;;;;5014021;28;20811;-80
2023/07/08 11:14:19;;;;;;;0.40;0.30;;;42.20;41.10;;;;;;5001085;28;20434;-77
2023/07/08 11:16:56;;;;;;;0.40;0.30;;;42.50;41.00;;;;;;5011328;28;20458;-80
2023/07/08 11:19:27;;;;;;;0.90;0.90;;;42.80;42.50;;;;;;5008283;28;20474;-80
2023/07/08 11:21:58;;;;;;;0.40;0.30;;;43.20;40.20;;;;;;5008748;28;20444;-80
2023/07/08 11:24:31;;;;;;;0.40;0.30;;;43.30;39.30;;;;;;5011002;28;20933;-81
2023/07/08 11:27:02;;;;;;;0.40;0.30;;;42.80;42.00;;;;;;5011348;28;20580;-80
2023/07/08 11:29:40;;;;;;;0.40;0.30;;;42.70;39.40;;;;;;5001644;28;20445;-79
2023/07/08 11:32:12;;;;;;;0.40;0.30;;;41.70;39.00;;;;;;5008152;28;20454;-77
2023/07/08 11:34:39;;;;;;;0.40;0.30;;;40.60;39.50;;;;;;5006894;28;20454;-80
2023/07/08 11:37:08;;;;;;;0.40;0.30;;;40.70;40.80;;;;;;5005635;28;20842;-77
2023/07/08 11:39:41;;;;;;;0.40;0.30;;;40.80;42.30;;;;;;5006723;28;20504;-77
2023/07/08 11:42:20;;;;;;;0.40;0.30;;;41.50;45.40;;;;;;5007418;28;20469;-80
2023/07/08 11:44:51;;;;;;;0.80;0.73;;;42.10;41.60;;;;;;5011628;28;20488;-80
2023/07/08 11:47:24;;;;;;;0.40;0.30;;;42.40;40.60;;;;;;5009015;28;20474;-80
2023/07/08 11:49:53;;;;;;;0.50;0.50;;;42.40;40.80;;;;;;5013416;28;20449;-80
2023/07/08 11:52:24;;;;;;;0.50;0.50;;;42.10;38.60;;;;;;5008480;28;20521;-80
2023/07/08 11:54:58;;;;;;;0.40;0.30;;;41.90;40.60;;;;;;5007783;28;20451;-80
2023/07/08 11:57:30;;;;;;;2.77;2.53;;;42.00;40.20;;;;;;5009483;28;21004;-81
2023/07/08 12:00:20;;;;;;;2.20;1.23;;;42.00;39.50;;;;;;4995800;28;20447;-80
2023/07/08 12:02:52;;;;;;;0.77;0.60;;;41.20;40.00;;;;;;5000338;28;20443;-79
2023/07/08 12:05:31;;;;;;;0.40;0.30;;;41.30;39.50;;;;;;5006867;28;20481;-80
2023/07/08 12:08:02;;;;;;;0.40;0.30;;;41.30;42.20;;;;;;5007905;28;20498;-81
2023/07/08 12:10:33;;;;;;;0.40;0.30;;;41.90;41.90;;;;;;5015366;28;21404;-80
2023/07/08 12:13:00;;;;;;;1.23;1.13;;;42.00;39.10;;;;;;4998937;28;20447;-80
2023/07/08 12:15:29;;;;;;;0.50;0.40;;;42.00;41.30;;;;;;5006940;28;20466;-80
2023/07/08 12:17:59;;;;;;;0.40;0.30;;;41.90;38.70;;;;;;5012927;28;20572;-80
2023/07/08 12:20:30;;;;;;;0.40;0.30;;;41.20;39.70;;;;;;4999233;28;20446;-81
2023/07/08 12:22:59;;;;;;;0.40;0.30;;;41.50;39.40;;;;;;5004920;28;20456;-79
2023/07/08 12:25:34;;;;;;;0.40;0.30;;;41.30;39.40;;;;;;5007334;28;20477;-80
2023/07/08 12:28:02;;;;;;;0.40;0.30;;;41.40;39.80;;;;;;5013656;28;20478;-79
2023/07/08 12:30:31;;;;;;;0.40;0.30;;;41.60;39.90;;;;;;5007722;28;20461;-80
2023/07/08 12:32:59;;;;;;;0.67;0.50;;;41.70;38.60;;;;;;5004274;28;20446;-79
2023/07/08 12:35:28;;;;;;;0.40;0.40;;;40.90;38.30;;;;;;5007178;28;20501;-79
2023/07/08 12:37:59;;;;;;;0.40;0.30;;;40.60;40.60;;;;;;5004690;28;20466;-80
2023/07/08 12:40:29;;;;;;;1.63;1.53;;;40.90;40.60;;;;;;5007199;28;20442;-80
2023/07/08 12:42:57;;;;;;;25.57;4.77;;;41.20;38.80;;;;;;5007361;28;20490;-81
2023/07/08 12:45:26;;;;;;;0.40;0.30;;;41.20;39.50;;;;;;5007390;28;21231;-80
2023/07/08 12:47:53;;;;;;;3.90;0.77;;;41.70;42.80;;;;;;5013282;28;20466;-79
2023/07/08 12:50:20;;;;;;;0.50;0.50;;;42.30;38.70;;;;;;5009657;28;20450;-80
2023/07/08 12:52:47;;;;;;;0.40;0.30;;;41.90;37.30;;;;;;5009588;28;20896;-80
2023/07/08 12:55:15;;;;;;;0.50;0.50;;;41.40;40.30;;;;;;5009666;28;20446;-80
2023/07/08 12:57:46;;;;;;;0.40;0.30;;;41.50;37.50;;;;;;5012686;28;20494;-80
2023/07/08 13:00:17;;;;;;;0.40;0.30;;;41.40;40.00;;;;;;5012453;28;20450;-79